Time,TemperatureF,DewpointF,PressureIn,WindDirection,WindDirectionDegrees,WindSpeedMPH,WindSpeedGustMPH,Humidity,HourlyPrecipIn,Conditions,Clouds,dailyrainin,SoftwareType,DateUTC
2013-02-26 08:02:00,15.0,-99.9,-100.00,North,-999,-999.0,-999.0,-999,-99.99,,,-99.99,,2013-02-26 16:02:00,
2013-02-26 08:11:00,15.0,-99.9,-100.00,North,-999,-999.0,-999.0,-999,-99.99,,,-99.99,,2013-02-26 16:11:00,
2013-02-26 08:22:00,15.0,-99.9,-100.00,North,-999,-999.0,-999.0,-999,-99.99,,,-99.99,,2013-02-26 16:22:00,
2013-02-26 09:01:00,33.0,12.0,-100.00,SSW,193,2.0,-999.0,42,-99.99,,,0.00,,2013-02-26 17:01:00,
2013-02-26 09:32:00,33.0,12.0,-100.00,SSW,193,2.0,-999.0,42,-99.99,,,0.00,,2013-02-26 17:32:00,
2013-02-26 10:01:00,42.0,14.0,-100.00,East,98,1.0,6.0,31,0.00,,,0.00,,2013-02-26 18:01:00,
2013-02-26 11:01:00,44.0,8.0,-100.00,NW,317,3.0,8.0,22,0.00,,,0.00,,2013-02-26 19:01:00,
2013-02-26 12:01:00,42.0,-2.0,-100.00,NNW,347,5.0,14.0,15,-99.99,,,0.00,,2013-02-26 20:01:00,
2013-02-26 12:11:00,42.0,-2.0,-100.00,NNW,347,5.0,14.0,15,-99.99,,,0.00,,2013-02-26 20:11:00,
2013-02-26 12:21:00,42.0,-2.0,-100.00,NNW,347,5.0,14.0,15,-99.99,,,0.00,,2013-02-26 20:21:00,
2013-02-26 12:31:00,42.0,-2.0,-100.00,NNW,347,5.0,14.0,15,-99.99,,,0.00,,2013-02-26 20:31:00,
2013-02-26 14:01:00,41.0,1.0,-100.00,NW,324,4.0,13.0,18,-99.99,,,0.00,,2013-02-26 22:01:00,
2013-02-26 14:11:00,41.0,1.0,-100.00,NW,324,4.0,13.0,18,-99.99,,,0.00,,2013-02-26 22:11:00,
2013-02-26 14:21:00,41.0,1.0,-100.00,NW,324,4.0,13.0,18,-99.99,,,0.00,,2013-02-26 22:21:00,
2013-02-26 14:31:00,41.0,1.0,-100.00,NW,324,4.0,13.0,18,-99.99,,,0.00,,2013-02-26 22:31:00,
2013-02-26 15:01:00,44.0,1.0,-100.00,NW,326,6.0,13.0,16,0.00,,,0.00,,2013-02-26 23:01:00,
2013-02-26 15:11:00,44.0,1.0,-100.00,NW,326,6.0,13.0,16,0.00,,,0.00,,2013-02-26 23:11:00,
2013-02-26 15:21:00,44.0,1.0,-100.00,NW,326,6.0,13.0,16,0.00,,,0.00,,2013-02-26 23:21:00,
2013-02-26 15:31:00,44.0,1.0,-100.00,NW,326,6.0,13.0,16,0.00,,,0.00,,2013-02-26 23:31:00,
2013-02-26 16:01:00,39.0,0.0,-100.00,NNW,337,4.0,14.0,19,0.00,,,0.00,,2013-02-27 00:01:00,
2013-02-26 16:11:00,39.0,0.0,-100.00,NNW,337,4.0,14.0,19,0.00,,,0.00,,2013-02-27 00:11:00,
2013-02-26 16:21:00,39.0,0.0,-100.00,NNW,337,4.0,14.0,19,0.00,,,0.00,,2013-02-27 00:21:00,
2013-02-26 16:31:00,39.0,0.0,-100.00,NNW,337,4.0,14.0,19,0.00,,,0.00,,2013-02-27 00:31:00,
2013-02-26 17:01:00,38.0,1.0,-100.00,NNW,334,4.0,12.0,20,0.00,,,0.00,,2013-02-27 01:01:00,
2013-02-26 17:11:00,38.0,1.0,-100.00,NNW,334,4.0,12.0,20,0.00,,,0.00,,2013-02-27 01:11:00,
2013-02-26 17:21:00,38.0,1.0,-100.00,NNW,334,4.0,12.0,20,0.00,,,0.00,,2013-02-27 01:21:00,
2013-02-26 17:31:00,38.0,1.0,-100.00,NNW,334,4.0,12.0,20,0.00,,,0.00,,2013-02-27 01:31:00,
2013-02-26 18:01:00,33.0,1.0,-100.00,WNW,299,1.0,8.0,25,0.00,,,0.00,,2013-02-27 02:01:00,
2013-02-26 18:13:00,33.0,1.0,-100.00,WNW,299,1.0,8.0,25,0.00,,,0.00,,2013-02-27 02:13:00,
2013-02-26 18:22:00,33.0,1.0,-100.00,WNW,299,1.0,8.0,25,0.00,,,0.00,,2013-02-27 02:22:00,
2013-02-26 18:31:00,33.0,1.0,-100.00,WNW,299,1.0,8.0,25,0.00,,,0.00,,2013-02-27 02:31:00,
2013-02-26 19:01:00,29.0,10.0,-100.00,WNW,283,1.0,2.0,44,0.00,,,0.00,,2013-02-27 03:01:00,
2013-02-26 19:11:00,29.0,10.0,-100.00,WNW,283,1.0,2.0,44,0.00,,,0.00,,2013-02-27 03:11:00,
2013-02-26 19:21:00,29.0,10.0,-100.00,WNW,283,1.0,2.0,44,0.00,,,0.00,,2013-02-27 03:21:00,
2013-02-26 19:31:00,29.0,10.0,-100.00,WNW,283,1.0,2.0,44,0.00,,,0.00,,2013-02-27 03:31:00,